createdAt,value
2019-05-28T00:00:42.768Z,9.70
2019-05-28T00:03:11.521Z,9.70
2019-05-28T00:05:40.305Z,9.70
2019-05-28T00:08:09.321Z,9.80
2019-05-28T00:10:37.977Z,9.80
2019-05-28T00:13:06.692Z,9.80
2019-05-28T00:15:35.421Z,9.70
2019-05-28T00:18:04.136Z,9.60
2019-05-28T00:20:32.932Z,9.70
2019-05-28T00:23:01.593Z,9.70
2019-05-28T00:25:30.276Z,9.70
2019-05-28T00:27:58.993Z,9.60
2019-05-28T00:30:27.636Z,9.60
2019-05-28T00:32:56.368Z,9.50
2019-05-28T00:35:25.091Z,9.40
2019-05-28T00:37:53.852Z,9.40
2019-05-28T00:40:22.563Z,9.40
2019-05-28T00:42:51.293Z,9.30
2019-05-28T00:45:21.112Z,9.30
2019-05-28T00:47:49.829Z,9.20
2019-05-28T00:50:18.653Z,9.20
2019-05-28T00:52:47.381Z,9.20
2019-05-28T00:55:17.828Z,9.20
2019-05-28T00:57:48.018Z,9.20
2019-05-28T01:00:17.402Z,9.20
2019-05-28T01:02:46.125Z,9.10
2019-05-28T01:05:14.849Z,9.10
2019-05-28T01:07:43.528Z,9.10
2019-05-28T01:10:13.453Z,9.00
2019-05-28T01:12:42.116Z,9.00
2019-05-28T01:15:11.328Z,9.00
2019-05-28T01:17:39.985Z,9.00
2019-05-28T01:20:09.332Z,9.00
2019-05-28T01:22:38.052Z,9.00
2019-05-28T01:25:07.265Z,8.90
2019-05-28T01:27:35.984Z,8.90
2019-05-28T01:30:06.616Z,8.90
2019-05-28T01:32:35.353Z,8.90
2019-05-28T01:35:05.653Z,9.00
2019-05-28T01:37:34.377Z,9.00
2019-05-28T01:40:04.736Z,8.90
2019-05-28T01:42:52.773Z,8.90
2019-05-28T01:45:23.166Z,8.90
2019-05-28T01:47:51.810Z,8.90
2019-05-28T01:50:20.554Z,8.90
2019-05-28T01:52:49.256Z,9.00
2019-05-28T01:55:17.973Z,9.00
2019-05-28T01:57:46.629Z,9.10
2019-05-28T02:00:17.085Z,9.10
2019-05-28T02:02:45.781Z,9.10
2019-05-28T02:05:14.875Z,9.10
2019-05-28T02:07:43.603Z,9.10
2019-05-28T02:10:12.828Z,9.10
2019-05-28T02:12:41.577Z,9.10
2019-05-28T02:15:11.514Z,9.10
2019-05-28T02:17:40.229Z,9.10
2019-05-28T02:20:10.250Z,9.20
2019-05-28T02:22:38.903Z,9.30
2019-05-28T02:25:08.521Z,9.40
2019-05-28T02:27:37.174Z,9.40
2019-05-28T02:30:09.089Z,9.50
2019-05-28T02:32:38.068Z,9.60
2019-05-28T02:35:07.683Z,9.70
2019-05-28T02:37:36.416Z,9.80
2019-05-28T02:40:08.842Z,9.80
2019-05-28T02:42:37.589Z,9.90
2019-05-28T02:45:11.781Z,10.00
2019-05-28T02:47:40.507Z,10.00
2019-05-28T02:50:10.625Z,10.10
2019-05-28T02:52:40.765Z,10.10
2019-05-28T02:55:10.286Z,10.10
2019-05-28T02:57:40.684Z,10.20
2019-05-28T03:00:13.872Z,10.20
2019-05-28T03:02:45.533Z,10.20
2019-05-28T03:05:14.891Z,10.20
2019-05-28T03:07:45.416Z,10.20
2019-05-28T03:10:14.541Z,10.20
2019-05-28T03:12:43.289Z,10.20
2019-05-28T03:15:12.002Z,10.30
2019-05-28T03:17:42.149Z,10.20
2019-05-28T03:20:12.439Z,10.20
2019-05-28T03:22:42.770Z,10.20
2019-05-28T03:25:11.489Z,10.20
2019-05-28T03:27:40.248Z,10.30
2019-05-28T03:30:10.380Z,10.50
2019-05-28T03:32:39.106Z,10.70
2019-05-28T03:35:08.016Z,10.90
2019-05-28T03:37:37.440Z,11.00
2019-05-28T03:40:08.637Z,11.10
2019-05-28T03:42:38.453Z,11.30
2019-05-28T03:45:10.266Z,11.30
2019-05-28T03:47:39.058Z,11.10
2019-05-28T03:50:07.980Z,11.00
2019-05-28T03:52:36.712Z,11.20
2019-05-28T03:55:07.006Z,11.30
2019-05-28T03:57:35.771Z,11.30
2019-05-28T04:00:06.076Z,11.40
2019-05-28T04:02:34.738Z,11.40
2019-05-28T04:05:03.464Z,11.40
2019-05-28T04:07:34.180Z,11.50
2019-05-28T04:10:02.825Z,11.30
2019-05-28T04:12:31.923Z,11.40
2019-05-28T04:15:02.549Z,11.50
2019-05-28T04:17:31.386Z,11.50
2019-05-28T04:20:00.618Z,11.70
2019-05-28T04:22:29.582Z,11.80
2019-05-28T04:25:16.372Z,12.00
2019-05-28T04:27:45.037Z,11.90
2019-05-28T04:30:13.967Z,12.00
2019-05-28T04:32:51.674Z,12.10
2019-05-28T04:35:20.388Z,12.50
2019-05-28T04:37:49.036Z,12.30
2019-05-28T04:40:17.760Z,12.20
2019-05-28T04:42:46.505Z,12.40
2019-05-28T04:45:15.223Z,12.50
2019-05-28T04:47:43.947Z,12.60
2019-05-28T04:50:13.068Z,12.70
2019-05-28T04:52:41.861Z,12.60
2019-05-28T04:55:10.726Z,12.50
2019-05-28T04:57:39.468Z,12.10
2019-05-28T05:00:09.700Z,12.20
2019-05-28T05:02:38.432Z,12.30
2019-05-28T05:05:08.354Z,12.40
2019-05-28T05:07:37.117Z,12.60
2019-05-28T05:10:06.526Z,12.80
2019-05-28T05:12:35.260Z,12.70
2019-05-28T05:15:04.908Z,12.90
2019-05-28T05:17:33.757Z,13.00
2019-05-28T05:20:02.481Z,12.80
2019-05-28T05:22:31.205Z,12.60
2019-05-28T05:24:59.938Z,12.70
2019-05-28T05:27:28.674Z,12.40
2019-05-28T05:29:57.414Z,12.30
2019-05-28T05:32:27.874Z,12.30
2019-05-28T05:34:56.381Z,12.30
2019-05-28T05:37:25.176Z,12.30
2019-05-28T05:39:53.882Z,12.20
2019-05-28T05:42:22.613Z,12.30
2019-05-28T05:44:51.341Z,12.30
2019-05-28T05:47:20.061Z,12.20
2019-05-28T05:49:48.709Z,12.20
2019-05-28T05:52:17.460Z,12.20
2019-05-28T05:54:46.117Z,12.30
2019-05-28T05:57:14.832Z,12.40
2019-05-28T05:59:43.577Z,12.50
2019-05-28T06:02:12.304Z,12.60
2019-05-28T06:04:41.021Z,12.50
2019-05-28T06:07:09.745Z,12.50
2019-05-28T06:09:38.501Z,12.40
2019-05-28T06:12:07.221Z,12.40
2019-05-28T06:14:38.080Z,12.50
2019-05-28T06:17:06.387Z,12.40
2019-05-28T06:19:35.344Z,12.50
2019-05-28T06:22:04.680Z,12.40
2019-05-28T06:24:33.482Z,12.50
2019-05-28T06:27:02.168Z,12.50
2019-05-28T06:29:30.929Z,12.70
2019-05-28T06:31:59.582Z,12.90
2019-05-28T06:34:28.312Z,12.90
2019-05-28T06:36:57.129Z,13.00
2019-05-28T06:39:25.792Z,13.10
2019-05-28T06:41:54.483Z,13.10
2019-05-28T06:44:23.240Z,13.10
2019-05-28T06:46:51.973Z,13.10
2019-05-28T06:49:20.626Z,13.10
2019-05-28T06:51:49.355Z,13.10
2019-05-28T06:54:18.075Z,12.80
2019-05-28T06:56:46.811Z,12.80
2019-05-28T06:59:15.457Z,12.80
2019-05-28T07:01:44.216Z,12.70
2019-05-28T07:04:16.002Z,12.70
2019-05-28T07:06:43.837Z,12.70
2019-05-28T07:09:12.631Z,12.70
2019-05-28T07:11:41.293Z,12.80
2019-05-28T07:14:10.033Z,12.70
2019-05-28T07:16:52.008Z,12.70
2019-05-28T07:19:23.404Z,12.80
2019-05-28T07:21:39.481Z,13.00
2019-05-28T07:24:08.547Z,13.30
2019-05-28T07:26:37.333Z,13.40
2019-05-28T07:29:06.055Z,13.40
2019-05-28T07:31:34.709Z,13.30
2019-05-28T07:34:03.433Z,13.40
2019-05-28T07:36:32.930Z,13.60
2019-05-28T07:39:01.617Z,13.60
2019-05-28T07:41:30.401Z,13.60
2019-05-28T07:43:59.060Z,13.60
2019-05-28T07:46:27.786Z,13.70
2019-05-28T07:48:56.517Z,13.80
2019-05-28T07:51:25.165Z,13.90
2019-05-28T07:53:54.500Z,13.70
2019-05-28T07:56:24.416Z,13.90
2019-05-28T07:58:53.201Z,13.90
2019-05-28T08:01:22.147Z,13.90
2019-05-28T08:03:50.870Z,13.80
2019-05-28T08:06:19.593Z,13.90
2019-05-28T08:08:48.337Z,13.80
2019-05-28T08:11:17.052Z,13.90
2019-05-28T08:13:45.767Z,13.90
2019-05-28T08:16:18.588Z,13.90
2019-05-28T08:18:46.304Z,13.80
2019-05-28T08:21:15.039Z,13.90
2019-05-28T08:23:43.694Z,13.90
2019-05-28T08:26:12.423Z,13.90
2019-05-28T08:28:41.145Z,13.70
2019-05-28T08:31:15.543Z,13.90
2019-05-28T08:33:41.304Z,13.90
2019-05-28T08:36:10.336Z,13.90
2019-05-28T08:38:39.096Z,14.00
2019-05-28T08:41:07.905Z,14.00
2019-05-28T08:43:36.573Z,13.90
2019-05-28T08:46:05.292Z,13.90
2019-05-28T08:48:34.122Z,13.80
2019-05-28T08:51:02.812Z,13.80
2019-05-28T08:53:31.463Z,13.70
2019-05-28T08:56:00.209Z,13.70
2019-05-28T08:58:28.920Z,13.70
2019-05-28T09:00:57.645Z,13.80
2019-05-28T09:03:26.372Z,13.80
2019-05-28T09:05:55.093Z,13.80
2019-05-28T09:08:37.795Z,13.70
2019-05-28T09:10:54.199Z,13.70
2019-05-28T09:13:22.882Z,13.90
2019-05-28T09:15:51.668Z,13.80
2019-05-28T09:18:20.395Z,13.90
2019-05-28T09:20:49.220Z,13.90
2019-05-28T09:23:17.894Z,14.10
2019-05-28T09:25:46.628Z,14.10
2019-05-28T09:28:29.217Z,14.10
2019-05-28T09:30:45.721Z,14.00
2019-05-28T09:33:15.069Z,14.20
2019-05-28T09:35:50.564Z,14.20
2019-05-28T09:38:14.160Z,14.20
2019-05-28T09:40:49.919Z,14.30
2019-05-28T09:43:13.526Z,14.40
2019-05-28T09:45:42.360Z,14.50
2019-05-28T09:48:11.013Z,14.40
2019-05-28T09:50:39.665Z,14.30
2019-05-28T09:53:08.437Z,14.10
2019-05-28T09:55:37.060Z,14.00
2019-05-28T09:58:05.893Z,14.00
2019-05-28T10:00:36.542Z,14.10
2019-05-28T10:03:05.882Z,14.10
2019-05-28T10:05:34.707Z,14.00
2019-05-28T10:08:03.423Z,14.00
2019-05-28T10:10:32.138Z,14.00
2019-05-28T10:13:00.853Z,13.90
2019-05-28T10:15:29.572Z,14.00
2019-05-28T10:17:58.636Z,14.00
2019-05-28T10:20:28.612Z,13.90
2019-05-28T10:22:57.338Z,13.80
2019-05-28T10:25:26.092Z,13.80
2019-05-28T10:28:00.953Z,13.70
2019-05-28T10:30:27.172Z,13.60
2019-05-28T10:32:55.900Z,13.50
2019-05-28T10:35:24.916Z,13.50
2019-05-28T10:37:53.687Z,13.60
2019-05-28T10:40:22.694Z,13.90
2019-05-28T10:42:52.300Z,13.90
2019-05-28T10:45:21.436Z,13.90
2019-05-28T10:47:50.150Z,14.00
2019-05-28T10:50:20.357Z,14.00
2019-05-28T10:52:49.099Z,14.00
2019-05-28T10:55:17.991Z,14.00
2019-05-28T10:57:46.720Z,13.80
2019-05-28T11:00:16.368Z,13.90
2019-05-28T11:02:45.072Z,13.90
2019-05-28T11:05:14.289Z,14.00
2019-05-28T11:07:43.010Z,14.20
2019-05-28T11:10:23.659Z,14.30
2019-05-28T11:12:43.718Z,14.30
2019-05-28T11:15:13.256Z,14.30
2019-05-28T11:17:41.988Z,14.50
2019-05-28T11:20:12.910Z,14.50
2019-05-28T11:22:41.737Z,14.60
2019-05-28T11:25:13.464Z,14.40
2019-05-28T11:27:42.180Z,14.30
2019-05-28T11:30:13.728Z,14.30
2019-05-28T11:32:42.429Z,14.40
2019-05-28T11:35:12.065Z,14.30
2019-05-28T11:37:40.780Z,14.30
2019-05-28T11:40:11.798Z,14.30
2019-05-28T11:42:40.573Z,14.10
2019-05-28T11:45:11.503Z,14.10
2019-05-28T11:47:41.201Z,14.20
2019-05-28T11:50:11.150Z,14.00
2019-05-28T11:52:39.858Z,13.90
2019-05-28T11:55:13.492Z,14.00
2019-05-28T11:57:42.217Z,14.00
2019-05-28T12:00:11.835Z,13.90
2019-05-28T12:02:40.682Z,13.90
2019-05-28T12:05:10.732Z,13.80
2019-05-28T12:07:39.439Z,13.60
2019-05-28T12:10:09.164Z,13.60
2019-05-28T12:12:39.004Z,13.60
2019-05-28T12:15:10.510Z,13.70
2019-05-28T12:17:43.450Z,13.70
2019-05-28T12:20:12.401Z,13.70
2019-05-28T12:22:41.713Z,13.60
2019-05-28T12:25:12.319Z,13.60
2019-05-28T12:27:41.184Z,13.60
2019-05-28T12:30:11.413Z,13.60
2019-05-28T12:32:40.234Z,13.60
2019-05-28T12:35:26.498Z,13.60
2019-05-28T12:37:47.736Z,13.70
2019-05-28T12:40:10.311Z,13.70
2019-05-28T12:42:39.021Z,13.70
2019-05-28T12:45:11.569Z,13.70
2019-05-28T12:47:40.325Z,13.60
2019-05-28T12:50:18.881Z,13.50
2019-05-28T12:52:40.897Z,13.60
2019-05-28T12:55:10.733Z,13.70
2019-05-28T12:57:39.466Z,13.60
2019-05-28T13:00:13.296Z,13.70
2019-05-28T13:02:42.020Z,13.70
2019-05-28T13:05:21.664Z,13.70
2019-05-28T13:08:06.275Z,13.50
2019-05-28T13:10:20.873Z,13.50
2019-05-28T13:12:49.596Z,13.50
2019-05-28T13:15:19.439Z,13.50
2019-05-28T13:17:48.174Z,13.40
2019-05-28T13:20:18.603Z,13.50
2019-05-28T13:22:47.424Z,13.50
2019-05-28T13:25:16.367Z,13.50
2019-05-28T13:27:45.024Z,13.60
2019-05-28T13:30:14.865Z,13.50
2019-05-28T13:32:44.284Z,13.60
2019-05-28T13:35:14.404Z,13.60
2019-05-28T13:37:43.220Z,13.50
2019-05-28T13:40:13.975Z,13.50
2019-05-28T13:42:42.701Z,13.60
2019-05-28T13:45:11.639Z,13.70
2019-05-28T13:47:40.408Z,13.70
2019-05-28T13:50:11.150Z,13.70
2019-05-28T13:52:40.032Z,13.70
2019-05-28T13:55:11.823Z,13.70
2019-05-28T13:57:40.545Z,13.80
2019-05-28T14:00:12.044Z,13.80
2019-05-28T14:02:45.716Z,13.80
2019-05-28T14:05:13.714Z,13.80
2019-05-28T14:07:42.479Z,13.70
2019-05-28T14:10:13.103Z,13.80
2019-05-28T14:12:42.033Z,13.90
2019-05-28T14:15:31.493Z,13.90
2019-05-28T14:18:00.215Z,13.90
2019-05-28T14:20:29.008Z,14.00
2019-05-28T14:22:57.732Z,14.10
2019-05-28T14:25:26.653Z,14.10
2019-05-28T14:27:55.386Z,14.20
2019-05-28T14:30:24.412Z,14.00
2019-05-28T14:32:53.147Z,14.10
2019-05-28T14:35:22.013Z,14.30
2019-05-28T14:37:50.916Z,14.30
2019-05-28T14:40:24.061Z,14.30
2019-05-28T14:42:50.418Z,14.10
2019-05-28T14:45:19.542Z,14.00
2019-05-28T14:47:48.324Z,14.10
2019-05-28T14:50:23.604Z,14.30
2019-05-28T14:52:52.363Z,14.60
2019-05-28T14:55:21.092Z,14.70
2019-05-28T14:57:49.906Z,14.70
2019-05-28T15:00:19.633Z,14.70
2019-05-28T15:02:48.373Z,14.50
2019-05-28T15:05:18.523Z,14.50
2019-05-28T15:07:47.289Z,14.60
2019-05-28T15:10:22.287Z,14.60
2019-05-28T15:12:51.251Z,14.70
2019-05-28T15:15:34.546Z,14.90
2019-05-28T15:17:50.629Z,14.90
2019-05-28T15:20:19.558Z,15.00
2019-05-28T15:22:48.344Z,14.80
2019-05-28T15:25:17.436Z,15.00
2019-05-28T15:27:46.976Z,15.10
2019-05-28T15:30:18.110Z,15.10
2019-05-28T15:32:46.833Z,15.00
2019-05-28T15:35:16.163Z,15.00
2019-05-28T15:37:55.741Z,15.00
2019-05-28T15:40:24.570Z,14.90
2019-05-28T15:43:05.657Z,15.00
2019-05-28T15:45:23.596Z,15.00
2019-05-28T15:47:52.255Z,15.10
2019-05-28T15:50:21.429Z,15.10
2019-05-28T15:52:50.137Z,15.10
2019-05-28T15:55:18.866Z,15.10
2019-05-28T15:57:47.550Z,15.30
2019-05-28T16:00:22.350Z,15.30
2019-05-28T16:02:51.823Z,15.30
2019-05-28T16:05:20.734Z,15.10
2019-05-28T16:07:49.455Z,15.20
2019-05-28T16:10:18.296Z,15.40
2019-05-28T16:12:47.020Z,15.40
2019-05-28T16:15:17.819Z,15.30
2019-05-28T16:17:46.546Z,15.40
2019-05-28T16:20:15.960Z,15.40
2019-05-28T16:22:44.640Z,15.20
2019-05-28T16:25:13.823Z,15.20
2019-05-28T16:27:42.553Z,15.10
2019-05-28T16:30:11.874Z,15.20
2019-05-28T16:32:40.662Z,15.30
2019-05-28T16:35:10.974Z,15.20
2019-05-28T16:37:39.701Z,15.20
2019-05-28T16:40:15.582Z,15.40
2019-05-28T16:42:41.193Z,15.50
2019-05-28T16:45:10.594Z,15.60
2019-05-28T16:47:39.531Z,15.40
2019-05-28T16:50:09.070Z,15.40
2019-05-28T16:52:37.803Z,15.50
2019-05-28T16:55:07.341Z,15.60
2019-05-28T16:57:36.144Z,15.50
2019-05-28T17:00:07.581Z,15.60
2019-05-28T17:02:36.572Z,15.60
2019-05-28T17:05:08.760Z,15.70
2019-05-28T17:07:37.481Z,15.70
2019-05-28T17:10:07.500Z,15.60
2019-05-28T17:12:36.405Z,15.60
2019-05-28T17:15:06.855Z,15.60
2019-05-28T17:17:35.635Z,15.60
2019-05-28T17:20:09.801Z,15.70
2019-05-28T17:22:38.577Z,15.80
2019-05-28T17:25:11.733Z,15.70
2019-05-28T17:27:39.357Z,15.60
2019-05-28T17:30:19.181Z,15.80
2019-05-28T17:32:42.739Z,15.80
2019-05-28T17:35:11.870Z,15.90
2019-05-28T17:37:40.615Z,15.70
2019-05-28T17:40:09.736Z,15.60
2019-05-28T17:42:38.471Z,15.70
2019-05-28T17:45:08.793Z,15.80
2019-05-28T17:47:43.326Z,15.80
2019-05-28T17:50:09.794Z,15.70
2019-05-28T17:52:39.263Z,15.80
2019-05-28T17:55:08.353Z,15.80
2019-05-28T17:57:37.040Z,15.90
2019-05-28T18:00:06.664Z,15.90
2019-05-28T18:02:35.376Z,15.80
2019-05-28T18:05:06.180Z,15.80
2019-05-28T18:07:34.922Z,15.80
2019-05-28T18:10:06.156Z,15.90
2019-05-28T18:12:34.910Z,15.80
2019-05-28T18:15:04.655Z,15.70
2019-05-28T18:17:33.389Z,15.80
2019-05-28T18:20:02.147Z,15.90
2019-05-28T18:22:30.913Z,15.90
2019-05-28T18:24:59.705Z,15.80
2019-05-28T18:27:28.809Z,15.70
2019-05-28T18:29:57.469Z,15.60
2019-05-28T18:32:26.266Z,15.70
2019-05-28T18:34:54.896Z,15.70
2019-05-28T18:37:23.620Z,15.80
2019-05-28T18:39:52.345Z,15.70
2019-05-28T18:42:21.068Z,15.60
2019-05-28T18:44:49.840Z,15.60
2019-05-28T18:47:18.578Z,15.50
2019-05-28T18:49:47.447Z,15.50
2019-05-28T18:52:16.198Z,15.50
2019-05-28T18:54:44.968Z,15.60
2019-05-28T18:57:13.709Z,15.70
2019-05-28T18:59:42.560Z,15.60
2019-05-28T19:02:11.358Z,15.70
2019-05-28T19:04:40.159Z,15.60
2019-05-28T19:07:08.888Z,15.60
2019-05-28T19:09:37.541Z,15.60
2019-05-28T19:12:06.312Z,15.60
2019-05-28T19:14:35.044Z,15.70
2019-05-28T19:17:03.772Z,15.70
2019-05-28T19:19:32.601Z,15.60
2019-05-28T19:22:01.391Z,15.60
2019-05-28T19:24:30.033Z,15.60
2019-05-28T19:26:58.759Z,15.50
2019-05-28T19:29:27.504Z,15.50
2019-05-28T19:31:56.348Z,15.50
2019-05-28T19:34:25.104Z,15.50
2019-05-28T19:36:56.387Z,15.50
2019-05-28T19:39:24.442Z,15.60
2019-05-28T19:41:54.684Z,15.60
2019-05-28T19:44:23.531Z,15.60
2019-05-28T19:46:52.176Z,15.60
2019-05-28T19:49:20.906Z,15.60
2019-05-28T19:51:49.739Z,15.60
2019-05-28T19:54:18.478Z,15.50
2019-05-28T19:56:47.171Z,15.50
2019-05-28T19:59:15.910Z,15.40
2019-05-28T20:01:44.704Z,15.30
2019-05-28T20:04:13.471Z,15.40
2019-05-28T20:06:42.276Z,15.40
2019-05-28T20:09:11.004Z,15.40
2019-05-28T20:11:39.664Z,15.40
2019-05-28T20:14:08.365Z,15.40
2019-05-28T20:16:37.057Z,15.40
2019-05-28T20:19:05.777Z,15.30
2019-05-28T20:21:34.517Z,15.30
2019-05-28T20:24:03.300Z,15.30
2019-05-28T20:26:32.081Z,15.30
2019-05-28T20:29:08.552Z,15.30
2019-05-28T20:31:31.160Z,15.40
2019-05-28T20:34:01.057Z,15.30
2019-05-28T20:36:30.024Z,15.40
2019-05-28T20:38:59.585Z,15.50
2019-05-28T20:41:28.500Z,15.50
2019-05-28T20:43:57.227Z,15.40
2019-05-28T20:46:25.881Z,15.30
2019-05-28T20:48:57.529Z,15.30
2019-05-28T20:51:26.179Z,15.30
2019-05-28T20:53:54.925Z,15.30
2019-05-28T20:56:23.698Z,15.40
2019-05-28T20:58:52.365Z,15.40
2019-05-28T21:01:21.101Z,15.50
2019-05-28T21:03:49.831Z,15.40
2019-05-28T21:06:18.480Z,15.50
2019-05-28T21:08:48.060Z,15.50
2019-05-28T21:11:16.876Z,15.50
2019-05-28T21:13:45.608Z,15.40
2019-05-28T21:16:14.401Z,15.30
2019-05-28T21:18:43.244Z,15.10
2019-05-28T21:21:11.983Z,14.90
2019-05-28T21:23:40.642Z,14.80
2019-05-28T21:26:09.292Z,14.80
2019-05-28T21:28:37.964Z,14.70
2019-05-28T21:31:06.681Z,14.70
2019-05-28T21:33:35.425Z,14.70
2019-05-28T21:36:04.173Z,14.70
2019-05-28T21:38:32.890Z,14.70
2019-05-28T21:41:01.804Z,14.60
2019-05-28T21:43:30.536Z,14.50
2019-05-28T21:46:00.442Z,14.50
2019-05-28T21:48:29.380Z,14.30
2019-05-28T21:50:58.786Z,14.30
2019-05-28T21:53:27.569Z,14.30
2019-05-28T21:55:57.210Z,14.30
2019-05-28T21:58:26.018Z,14.30
2019-05-28T22:01:00.521Z,14.30
2019-05-28T22:03:29.242Z,14.20
2019-05-28T22:05:59.300Z,14.20
2019-05-28T22:08:28.092Z,14.20
2019-05-28T22:10:57.713Z,14.10
2019-05-28T22:13:26.490Z,14.20
2019-05-28T22:15:56.017Z,14.00
2019-05-28T22:18:24.769Z,14.00
2019-05-28T22:20:53.497Z,14.10
2019-05-28T22:23:22.324Z,14.10
2019-05-28T22:25:51.093Z,14.10
2019-05-28T22:28:19.773Z,14.00
2019-05-28T22:30:48.501Z,14.00
2019-05-28T22:33:17.226Z,14.00
2019-05-28T22:35:45.952Z,14.10
2019-05-28T22:38:14.680Z,14.10
2019-05-28T22:40:43.444Z,14.20
2019-05-28T22:43:12.175Z,14.20
2019-05-28T22:45:43.208Z,14.20
2019-05-28T22:48:16.963Z,14.10
2019-05-28T22:50:42.480Z,14.20
2019-05-28T22:53:11.237Z,14.10
2019-05-28T22:55:39.970Z,14.00
2019-05-28T22:58:08.715Z,13.80
2019-05-28T23:00:37.476Z,13.70
2019-05-28T23:03:07.090Z,13.70
2019-05-28T23:05:36.033Z,13.70
2019-05-28T23:08:05.798Z,13.70
2019-05-28T23:10:34.689Z,13.60
2019-05-28T23:13:03.416Z,13.50
2019-05-28T23:15:32.112Z,13.40
2019-05-28T23:18:00.837Z,13.30
2019-05-28T23:20:29.488Z,13.30
2019-05-28T23:22:58.142Z,13.30
2019-05-28T23:25:26.861Z,13.20
2019-05-28T23:27:55.520Z,13.00
2019-05-28T23:30:25.448Z,12.90
2019-05-28T23:32:54.360Z,12.90
2019-05-28T23:35:23.085Z,12.90
2019-05-28T23:37:51.776Z,12.80
2019-05-28T23:40:20.493Z,12.70
2019-05-28T23:42:49.220Z,12.70
2019-05-28T23:45:17.948Z,12.70
2019-05-28T23:47:46.604Z,12.70
2019-05-28T23:50:18.093Z,12.70
2019-05-28T23:52:45.865Z,12.60
2019-05-28T23:55:14.588Z,12.60
2019-05-28T23:57:43.309Z,12.50
